createdAt,value
2022-11-24T00:01:36.583Z,17.92
2022-11-24T00:04:03.514Z,16.80
2022-11-24T00:06:30.434Z,21.58
2022-11-24T00:08:57.526Z,17.92
2022-11-24T00:11:24.439Z,16.13
2022-11-24T00:13:51.354Z,20.27
2022-11-24T00:16:18.346Z,14.50
2022-11-24T00:18:45.312Z,16.95
2022-11-24T00:21:12.210Z,17.58
2022-11-24T00:23:39.143Z,15.20
2022-11-24T00:26:06.052Z,16.05
2022-11-24T00:28:32.951Z,16.77
2022-11-24T00:30:59.936Z,14.95
2022-11-24T00:33:26.853Z,15.82
2022-11-24T00:35:53.768Z,15.20
2022-11-24T00:38:20.647Z,18.75
2022-11-24T00:40:47.545Z,15.65
2022-11-24T00:43:14.427Z,15.00
2022-11-24T00:45:41.428Z,15.18
2022-11-24T00:48:08.385Z,17.65
2022-11-24T00:50:35.280Z,18.50
2022-11-24T00:53:04.962Z,16.63
2022-11-24T00:55:32.100Z,18.63
2022-11-24T00:57:59.008Z,14.50
2022-11-24T01:00:25.895Z,17.15
2022-11-24T01:02:52.925Z,14.38
2022-11-24T01:05:19.864Z,13.90
2022-11-24T01:07:46.884Z,15.77
2022-11-24T01:10:13.826Z,14.85
2022-11-24T01:12:40.730Z,15.13
2022-11-24T01:15:07.618Z,15.57
2022-11-24T01:17:34.548Z,16.55
2022-11-24T01:20:01.447Z,15.40
2022-11-24T01:22:28.344Z,18.10
2022-11-24T01:24:55.249Z,15.55
2022-11-24T01:27:22.149Z,15.55
2022-11-24T01:29:49.065Z,15.73
2022-11-24T01:32:15.967Z,15.40
2022-11-24T01:34:42.881Z,14.38
2022-11-24T01:37:09.835Z,14.02
2022-11-24T01:39:36.745Z,13.75
2022-11-24T01:42:03.653Z,15.10
2022-11-24T01:44:30.588Z,14.30
2022-11-24T01:46:57.495Z,16.70
2022-11-24T01:49:24.411Z,16.30
2022-11-24T01:51:51.318Z,16.90
2022-11-24T01:54:18.229Z,14.07
2022-11-24T01:56:47.894Z,13.20
2022-11-24T01:59:14.823Z,14.18
2022-11-24T02:01:41.746Z,13.10
2022-11-24T02:04:08.697Z,16.85
2022-11-24T02:06:35.584Z,13.68
2022-11-24T02:09:02.477Z,15.18
2022-11-24T02:11:29.369Z,13.23
2022-11-24T02:13:56.265Z,12.07
2022-11-24T02:16:23.271Z,15.55
2022-11-24T02:18:50.278Z,14.55
2022-11-24T02:21:17.236Z,14.73
2022-11-24T02:23:44.114Z,19.73
2022-11-24T02:26:10.993Z,16.55
2022-11-24T02:31:18.765Z,14.40
2022-11-24T02:33:45.704Z,14.32
2022-11-24T02:36:12.662Z,12.13
2022-11-24T02:38:39.572Z,14.65
2022-11-24T02:41:06.484Z,14.05
2022-11-24T02:43:33.375Z,14.07
2022-11-24T02:46:00.385Z,14.10
2022-11-24T02:48:27.346Z,18.08
2022-11-24T02:50:54.263Z,15.65
2022-11-24T02:53:21.173Z,15.02
2022-11-24T02:55:48.108Z,12.38
2022-11-24T02:58:15.050Z,14.95
2022-11-24T03:00:41.964Z,13.40
2022-11-24T03:03:08.937Z,12.82
2022-11-24T03:05:35.946Z,13.45
2022-11-24T03:08:02.865Z,14.07
2022-11-24T03:10:29.855Z,15.07
2022-11-24T03:12:56.969Z,13.85
2022-11-24T03:15:23.957Z,13.85
2022-11-24T03:17:50.892Z,14.82
2022-11-24T03:20:17.849Z,14.13
2022-11-24T03:22:44.747Z,14.70
2022-11-24T03:25:11.667Z,14.15
2022-11-24T03:27:38.589Z,16.10
2022-11-24T03:30:05.569Z,13.48
2022-11-24T03:32:32.463Z,15.52
2022-11-24T03:34:59.364Z,17.95
2022-11-24T03:37:26.260Z,14.02
2022-11-24T03:39:53.156Z,14.45
2022-11-24T03:42:20.075Z,14.00
2022-11-24T03:44:46.990Z,15.35
2022-11-24T03:47:13.897Z,14.05
2022-11-24T03:49:40.792Z,12.80
2022-11-24T03:52:08.382Z,13.13
2022-11-24T03:54:35.678Z,14.07
2022-11-24T03:57:02.693Z,13.18
2022-11-24T03:59:29.604Z,13.60
2022-11-24T04:01:56.562Z,12.02
2022-11-24T04:04:23.573Z,13.65
2022-11-24T04:06:50.478Z,15.02
2022-11-24T04:09:17.369Z,13.13
2022-11-24T04:11:44.265Z,12.95
2022-11-24T04:14:13.822Z,12.70
2022-11-24T04:16:40.902Z,16.05
2022-11-24T04:19:07.814Z,15.13
2022-11-24T04:21:34.721Z,13.57
2022-11-24T04:24:01.609Z,17.27
2022-11-24T04:26:28.509Z,15.63
2022-11-24T04:28:55.514Z,12.15
2022-11-24T04:31:22.529Z,12.43
2022-11-24T04:33:49.486Z,15.43
2022-11-24T04:36:16.397Z,13.25
2022-11-24T04:39:25.369Z,13.70
2022-11-24T04:41:30.223Z,15.15
2022-11-24T04:43:57.106Z,16.70
2022-11-24T04:46:24.074Z,13.13
2022-11-24T04:48:50.985Z,13.32
2022-11-24T04:51:17.874Z,14.23
2022-11-24T04:53:44.782Z,14.18
2022-11-24T04:56:11.709Z,14.07
2022-11-24T04:58:38.597Z,14.55
2022-11-24T05:01:05.512Z,15.07
2022-11-24T05:03:32.392Z,12.05
2022-11-24T05:05:59.328Z,13.38
2022-11-24T05:08:26.220Z,14.80
2022-11-24T05:10:53.124Z,13.05
2022-11-24T05:13:20.081Z,12.73
2022-11-24T05:15:47.030Z,12.32
2022-11-24T05:18:13.948Z,15.63
2022-11-24T05:20:45.394Z,14.90
2022-11-24T05:23:12.333Z,14.05
2022-11-24T05:25:41.366Z,12.23
2022-11-24T05:28:10.590Z,12.93
2022-11-24T05:30:37.514Z,14.13
2022-11-24T05:33:04.400Z,15.25
2022-11-24T05:35:31.346Z,14.90
2022-11-24T05:37:58.244Z,15.95
2022-11-24T05:40:25.159Z,14.30
2022-11-24T05:42:52.071Z,15.13
2022-11-24T05:45:19.055Z,11.77
2022-11-24T05:47:45.981Z,11.25
2022-11-24T05:50:12.901Z,13.40
2022-11-24T05:52:39.845Z,14.88
2022-11-24T05:55:06.740Z,13.30
2022-11-24T05:57:33.700Z,12.63
2022-11-24T06:00:00.599Z,13.80
2022-11-24T06:02:27.655Z,13.65
2022-11-24T06:04:54.687Z,11.48
2022-11-24T06:07:21.650Z,12.95
2022-11-24T06:09:48.561Z,13.75
2022-11-24T06:12:15.472Z,17.52
2022-11-24T06:14:42.346Z,14.60
2022-11-24T06:17:09.244Z,15.45
2022-11-24T06:19:40.089Z,12.85
2022-11-24T06:22:08.812Z,15.27
2022-11-24T06:24:36.006Z,18.15
2022-11-24T06:27:03.233Z,17.67
2022-11-24T06:29:30.138Z,15.77
2022-11-24T06:31:57.106Z,14.05
2022-11-24T06:34:24.005Z,17.15
2022-11-24T06:36:50.918Z,15.18
2022-11-24T06:39:17.809Z,16.60
2022-11-24T06:41:44.706Z,13.85
2022-11-24T06:44:11.610Z,15.52
2022-11-24T06:46:38.524Z,14.27
2022-11-24T06:49:05.436Z,12.70
2022-11-24T06:51:32.348Z,17.65
2022-11-24T06:53:59.261Z,16.48
2022-11-24T06:56:26.182Z,15.65
2022-11-24T06:58:54.343Z,15.98
2022-11-24T07:01:21.302Z,15.18
2022-11-24T07:03:48.297Z,16.73
2022-11-24T07:06:15.246Z,14.18
2022-11-24T07:08:42.153Z,16.63
2022-11-24T07:11:09.158Z,14.02
2022-11-24T07:13:36.114Z,19.02
2022-11-24T07:16:03.058Z,14.35
2022-11-24T07:18:29.977Z,14.95
2022-11-24T07:20:56.886Z,15.25
2022-11-24T07:23:23.775Z,17.27
2022-11-24T07:25:50.676Z,15.10
2022-11-24T07:28:17.608Z,17.90
2022-11-24T07:30:44.492Z,17.00
2022-11-24T07:33:11.414Z,21.02
2022-11-24T07:35:38.330Z,15.77
2022-11-24T07:38:05.279Z,14.90
2022-11-24T07:40:32.253Z,17.75
2022-11-24T07:42:59.166Z,20.83
2022-11-24T07:45:29.109Z,14.23
2022-11-24T07:47:56.085Z,15.52
2022-11-24T07:50:22.997Z,16.95
2022-11-24T07:52:51.877Z,15.63
2022-11-24T07:55:18.783Z,17.25
2022-11-24T07:57:47.924Z,15.68
2022-11-24T08:00:14.896Z,15.82
2022-11-24T08:02:41.788Z,15.40
2022-11-24T08:05:08.743Z,17.48
2022-11-24T08:07:35.721Z,21.05
2022-11-24T08:10:02.826Z,14.88
2022-11-24T08:12:30.914Z,14.63
2022-11-24T08:14:57.801Z,16.88
2022-11-24T08:17:24.709Z,17.52
2022-11-24T08:19:51.589Z,15.98
2022-11-24T08:22:18.496Z,14.00
2022-11-24T08:24:45.422Z,15.23
2022-11-24T08:27:12.330Z,16.17
2022-11-24T08:29:39.231Z,14.77
2022-11-24T08:32:06.157Z,18.42
2022-11-24T08:34:33.320Z,14.95
2022-11-24T08:37:00.389Z,14.73
2022-11-24T08:39:27.280Z,15.98
2022-11-24T08:41:54.187Z,14.63
2022-11-24T08:44:21.068Z,18.17
2022-11-24T08:46:48.049Z,17.05
2022-11-24T08:49:14.947Z,15.45
2022-11-24T08:51:41.839Z,17.20
2022-11-24T08:54:08.747Z,14.10
2022-11-24T08:56:35.669Z,17.60
2022-11-24T08:59:03.008Z,16.77
2022-11-24T09:01:30.145Z,17.23
2022-11-24T09:03:58.266Z,16.38
2022-11-24T09:06:25.314Z,18.00
2022-11-24T09:08:52.209Z,13.88
2022-11-24T09:11:19.121Z,15.30
2022-11-24T09:13:46.038Z,18.88
2022-11-24T09:16:13.000Z,18.83
2022-11-24T09:18:40.023Z,15.48
2022-11-24T09:21:07.101Z,14.57
2022-11-24T09:23:35.959Z,16.98
2022-11-24T09:26:02.856Z,16.20
2022-11-24T09:28:29.772Z,13.18
2022-11-24T09:30:56.735Z,16.73
2022-11-24T09:33:23.646Z,15.90
2022-11-24T09:35:50.552Z,14.55
2022-11-24T09:38:17.441Z,14.07
2022-11-24T09:43:36.387Z,18.75
2022-11-24T09:46:05.854Z,14.57
2022-11-24T09:48:33.192Z,15.07
2022-11-24T09:51:00.107Z,14.35
2022-11-24T09:53:27.927Z,14.65
2022-11-24T09:55:54.860Z,18.10
2022-11-24T09:58:21.777Z,14.07
2022-11-24T10:00:48.654Z,14.23
2022-11-24T10:03:15.569Z,15.57
2022-11-24T10:05:42.494Z,16.70
2022-11-24T10:08:09.399Z,14.55
2022-11-24T10:10:36.317Z,16.90
2022-11-24T10:13:03.221Z,18.17
2022-11-24T10:15:30.282Z,15.82
2022-11-24T10:17:57.235Z,16.45
2022-11-24T10:20:24.190Z,15.38
2022-11-24T10:22:51.152Z,13.82
2022-11-24T10:25:18.075Z,16.98
2022-11-24T10:27:45.020Z,17.00
2022-11-24T10:30:11.959Z,17.55
2022-11-24T10:32:39.025Z,15.55
2022-11-24T10:35:05.931Z,14.02
2022-11-24T10:37:32.977Z,14.73
2022-11-24T10:40:00.444Z,14.05
2022-11-24T10:42:32.206Z,18.05
2022-11-24T10:44:59.150Z,15.90
2022-11-24T10:47:26.072Z,15.00
2022-11-24T10:49:53.049Z,20.23
2022-11-24T10:52:19.954Z,15.43
2022-11-24T10:54:46.894Z,15.50
2022-11-24T10:57:13.812Z,18.08
2022-11-24T10:59:41.717Z,15.93
2022-11-24T11:02:08.730Z,16.02
2022-11-24T11:04:35.719Z,16.92
2022-11-24T11:07:02.615Z,20.98
2022-11-24T11:09:29.507Z,15.90
2022-11-24T11:11:56.936Z,14.23
2022-11-24T11:14:25.959Z,17.05
2022-11-24T11:16:53.029Z,16.73
2022-11-24T11:19:47.244Z,16.52
2022-11-24T11:22:06.827Z,16.55
2022-11-24T11:24:33.714Z,17.42
2022-11-24T11:27:00.624Z,16.75
2022-11-24T11:35:01.301Z,18.98
2022-11-24T11:37:28.239Z,15.82
2022-11-24T11:39:55.148Z,15.82
2022-11-24T11:42:53.581Z,15.48
2022-11-24T11:45:09.001Z,16.80
2022-11-24T11:47:35.953Z,17.17
2022-11-24T11:50:02.881Z,17.20
2022-11-24T11:52:29.792Z,15.20
2022-11-24T11:54:57.066Z,19.95
2022-11-24T11:57:23.993Z,14.35
2022-11-24T11:59:50.884Z,18.02
2022-11-24T12:02:17.991Z,17.30
2022-11-24T12:04:44.947Z,17.33
2022-11-24T12:07:11.949Z,19.25
2022-11-24T12:09:43.359Z,15.98
2022-11-24T12:12:13.428Z,22.55
2022-11-24T12:14:40.345Z,16.58
2022-11-24T12:17:07.251Z,16.02
2022-11-24T12:19:34.308Z,14.35
2022-11-24T12:22:01.423Z,15.23
2022-11-24T12:24:28.440Z,15.82
2022-11-24T12:26:55.415Z,16.52
2022-11-24T12:29:22.307Z,15.30
2022-11-24T12:31:49.293Z,15.82
2022-11-24T12:34:16.264Z,18.48
2022-11-24T12:36:43.231Z,16.42
2022-11-24T12:39:10.139Z,18.35
2022-11-24T12:41:42.158Z,15.75
2022-11-24T12:44:09.779Z,15.77
2022-11-24T12:46:39.594Z,16.10
2022-11-24T12:49:06.519Z,15.75
2022-11-24T12:51:33.420Z,15.48
2022-11-24T12:54:00.414Z,19.50
2022-11-24T12:56:27.306Z,16.85
2022-11-24T12:58:54.294Z,18.15
2022-11-24T13:01:21.319Z,16.08
2022-11-24T13:03:48.373Z,18.27
2022-11-24T13:06:15.372Z,15.10
2022-11-24T13:08:42.288Z,17.45
2022-11-24T13:11:09.198Z,18.85
2022-11-24T13:13:36.146Z,17.73
2022-11-24T13:18:49.994Z,16.40
2022-11-24T13:21:19.949Z,15.77
2022-11-24T13:23:46.861Z,18.70
2022-11-24T13:26:13.799Z,17.13
2022-11-24T13:29:00.726Z,20.23
2022-11-24T13:31:28.061Z,26.60
2022-11-24T13:33:55.171Z,20.42
2022-11-24T13:36:22.149Z,19.27
2022-11-24T13:38:49.107Z,16.88
2022-11-24T13:41:28.202Z,18.60
2022-11-24T13:43:55.815Z,16.90
2022-11-24T13:46:22.816Z,16.88
2022-11-24T13:48:49.766Z,17.35
2022-11-24T13:51:16.755Z,18.13
2022-11-24T13:53:43.674Z,17.80
2022-11-24T13:56:10.640Z,16.90
2022-11-24T13:58:37.566Z,15.88
2022-11-24T14:01:04.520Z,17.80
2022-11-24T14:03:31.395Z,19.73
2022-11-24T14:05:58.280Z,17.80
2022-11-24T14:08:25.199Z,15.02
2022-11-24T14:10:52.090Z,16.77
2022-11-24T14:13:19.045Z,18.45
2022-11-24T14:15:46.000Z,20.45
2022-11-24T14:18:12.939Z,18.38
2022-11-24T14:20:39.889Z,19.02
2022-11-24T14:23:06.819Z,17.98
2022-11-24T14:25:33.717Z,22.00
2022-11-24T14:28:00.824Z,21.10
2022-11-24T14:30:27.779Z,18.92
2022-11-24T14:32:54.676Z,15.52
2022-11-24T14:35:21.627Z,18.20
2022-11-24T14:37:48.648Z,20.50
2022-11-24T14:40:15.538Z,19.10
2022-11-24T14:42:42.438Z,15.98
2022-11-24T14:45:09.372Z,17.60
2022-11-24T14:47:36.314Z,18.20
2022-11-24T14:50:03.261Z,21.98
2022-11-24T14:52:30.216Z,17.80
2022-11-24T14:54:58.992Z,20.85
2022-11-24T14:57:30.826Z,17.25
2022-11-24T14:59:57.744Z,20.15
2022-11-24T15:02:29.988Z,20.95
2022-11-24T15:05:04.539Z,23.38
2022-11-24T15:07:31.696Z,22.33
2022-11-24T15:10:01.916Z,19.25
2022-11-24T15:12:29.207Z,21.07
2022-11-24T15:14:56.178Z,18.98
2022-11-24T15:17:23.078Z,18.98
2022-11-24T15:19:50.043Z,19.98
2022-11-24T15:22:16.952Z,19.98
2022-11-24T15:24:43.858Z,20.50
2022-11-24T15:27:10.825Z,18.42
2022-11-24T15:29:37.715Z,17.42
2022-11-24T15:32:04.641Z,23.45
2022-11-24T15:34:31.561Z,18.88
2022-11-24T15:36:58.435Z,17.63
2022-11-24T15:39:25.328Z,14.48
2022-11-24T15:41:52.222Z,17.98
2022-11-24T15:44:19.112Z,19.50
2022-11-24T15:46:46.129Z,18.13
2022-11-24T15:49:13.133Z,18.38
2022-11-24T15:51:40.009Z,18.85
2022-11-24T15:54:06.919Z,17.70
2022-11-24T15:56:33.805Z,20.63
2022-11-24T15:59:00.681Z,18.42
2022-11-24T16:01:27.625Z,17.88
2022-11-24T16:03:54.547Z,20.27
2022-11-24T16:06:25.042Z,17.13
2022-11-24T16:08:52.330Z,19.33
2022-11-24T16:11:19.222Z,19.58
2022-11-24T16:13:51.824Z,18.92
2022-11-24T16:16:19.247Z,17.75
2022-11-24T16:18:46.254Z,20.90
2022-11-24T16:21:13.147Z,21.55
2022-11-24T16:23:40.045Z,23.27
2022-11-24T16:26:06.960Z,20.55
2022-11-24T16:28:33.907Z,18.90
2022-11-24T16:31:00.897Z,19.73
2022-11-24T16:33:27.847Z,20.77
2022-11-24T16:35:54.748Z,22.70
2022-11-24T16:38:21.825Z,23.27
2022-11-24T16:40:48.716Z,22.80
2022-11-24T16:43:15.654Z,24.05
2022-11-24T16:45:45.553Z,23.02
2022-11-24T16:48:12.698Z,22.33
2022-11-24T16:50:39.666Z,18.13
2022-11-24T16:53:06.553Z,20.73
2022-11-24T16:55:33.583Z,21.02
2022-11-24T16:58:00.544Z,25.65
2022-11-24T17:00:27.530Z,24.08
2022-11-24T17:02:54.594Z,21.42
2022-11-24T17:05:22.689Z,25.30
2022-11-24T17:07:49.630Z,20.70
2022-11-24T17:10:16.588Z,20.80
2022-11-24T17:12:43.491Z,20.77
2022-11-24T17:15:31.543Z,21.88
2022-11-24T17:18:23.088Z,20.98
2022-11-24T17:20:44.211Z,23.85
2022-11-24T17:23:11.160Z,22.45
2022-11-24T17:25:38.116Z,20.45
2022-11-24T17:28:13.772Z,17.83
2022-11-24T17:30:40.717Z,21.83
2022-11-24T17:33:10.476Z,24.20
2022-11-24T17:35:37.452Z,23.80
2022-11-24T17:38:04.394Z,43.88
2022-11-24T17:40:31.361Z,37.13
2022-11-24T17:42:58.333Z,28.70
2022-11-24T17:45:25.372Z,30.00
2022-11-24T17:47:52.561Z,28.13
2022-11-24T17:50:25.216Z,23.13
2022-11-24T17:52:52.896Z,27.38
2022-11-24T17:55:19.806Z,24.85
2022-11-24T17:57:46.737Z,24.85
2022-11-24T18:00:21.848Z,22.05
2022-11-24T18:05:29.641Z,19.60
2022-11-24T18:07:56.584Z,22.75
2022-11-24T18:16:05.733Z,20.92
2022-11-24T18:18:36.531Z,20.27
2022-11-24T18:21:06.280Z,20.83
2022-11-24T18:23:33.216Z,20.55
2022-11-24T18:26:13.080Z,21.30
2022-11-24T18:28:40.020Z,19.45
2022-11-24T18:31:06.913Z,24.38
2022-11-24T18:33:33.807Z,18.42
2022-11-24T18:36:00.795Z,21.13
2022-11-24T18:38:27.702Z,20.45
2022-11-24T18:40:54.636Z,22.63
2022-11-24T18:43:21.513Z,22.75
2022-11-24T18:45:48.459Z,25.42
2022-11-24T18:48:15.378Z,26.20
2022-11-24T18:50:42.297Z,24.45
2022-11-24T18:53:09.259Z,25.35
2022-11-24T18:55:36.226Z,21.05
2022-11-24T18:58:03.123Z,22.48
2022-11-24T19:00:30.062Z,21.92
2022-11-24T19:02:57.013Z,20.85
2022-11-24T19:05:23.931Z,22.42
2022-11-24T19:07:50.903Z,22.17
2022-11-24T19:10:17.912Z,18.80
2022-11-24T19:12:44.803Z,21.88
2022-11-24T19:15:11.771Z,20.23
2022-11-24T19:17:38.710Z,22.48
2022-11-24T19:20:05.618Z,27.80
2022-11-24T19:22:32.538Z,25.02
2022-11-24T19:24:59.449Z,21.95
2022-11-24T19:27:26.330Z,23.70
2022-11-24T19:29:53.251Z,23.80
2022-11-24T19:32:50.334Z,22.42
2022-11-24T19:35:15.425Z,20.38
2022-11-24T19:37:42.333Z,26.02
2022-11-24T19:40:09.216Z,18.83
2022-11-24T19:42:36.093Z,18.13
2022-11-24T19:45:10.210Z,19.13
2022-11-24T19:47:37.201Z,27.23
2022-11-24T19:50:10.219Z,16.73
2022-11-24T19:52:37.459Z,21.50
2022-11-24T19:55:05.011Z,17.20
2022-11-24T19:57:32.011Z,15.60
2022-11-24T19:59:58.918Z,15.40
2022-11-24T20:02:25.973Z,14.45
2022-11-24T20:04:52.925Z,13.93
2022-11-24T20:07:19.909Z,13.90
2022-11-24T20:09:46.910Z,13.43
2022-11-24T20:12:13.814Z,14.77
2022-11-24T20:14:40.729Z,14.32
2022-11-24T20:17:07.729Z,17.45
2022-11-24T20:19:34.679Z,16.52
2022-11-24T20:22:01.606Z,14.80
2022-11-24T20:24:28.594Z,17.70
2022-11-24T20:26:55.477Z,19.27
2022-11-24T20:29:22.380Z,14.52
2022-11-24T20:31:49.362Z,13.57
2022-11-24T20:34:16.331Z,12.70
2022-11-24T20:36:43.250Z,13.20
2022-11-24T20:39:10.167Z,15.15
2022-11-24T20:41:37.170Z,15.65
2022-11-24T20:44:04.108Z,14.65
2022-11-24T20:46:31.031Z,20.95
2022-11-24T20:48:58.965Z,24.95
2022-11-24T20:51:25.843Z,26.10
2022-11-24T20:53:52.765Z,30.30
2022-11-24T20:56:19.908Z,31.15
2022-11-24T21:04:22.496Z,20.90
2022-11-24T21:06:49.451Z,21.77
2022-11-24T21:09:16.400Z,22.25
2022-11-24T21:11:43.357Z,25.27
2022-11-24T21:14:10.422Z,24.52
2022-11-24T21:16:38.848Z,17.92
2022-11-24T21:19:05.960Z,24.90
2022-11-24T21:21:32.855Z,16.83
2022-11-24T21:23:59.753Z,16.27
2022-11-24T21:26:26.673Z,18.55
2022-11-24T21:28:53.710Z,24.27
2022-11-24T21:31:20.683Z,15.35
2022-11-24T21:33:50.693Z,15.95
2022-11-24T21:39:08.647Z,17.90
2022-11-24T21:41:35.860Z,13.55
2022-11-24T21:44:13.271Z,16.23
2022-11-24T21:46:58.973Z,14.60
2022-11-24T21:49:31.359Z,13.63
2022-11-24T21:52:02.472Z,19.63
2022-11-24T21:59:51.475Z,14.07
2022-11-24T22:02:32.432Z,13.45
2022-11-24T22:05:02.579Z,14.82
2022-11-24T22:07:32.584Z,14.75
2022-11-24T22:10:03.839Z,12.90
2022-11-24T22:20:39.724Z,14.10
2022-11-24T22:23:06.998Z,13.55
2022-11-24T22:25:37.998Z,16.48
2022-11-24T22:28:13.024Z,14.73
2022-11-24T22:36:27.468Z,12.65
2022-11-24T22:39:04.578Z,17.95
2022-11-24T22:41:34.892Z,15.40
2022-11-24T22:44:08.702Z,12.75
2022-11-24T22:46:39.350Z,14.10
2022-11-24T22:49:10.790Z,19.67
2022-11-24T22:51:40.426Z,16.08
2022-11-24T22:54:10.323Z,19.45
2022-11-24T22:56:43.778Z,12.45
2022-11-24T22:59:15.307Z,13.20
2022-11-24T23:01:45.240Z,17.58
2022-11-24T23:04:12.198Z,20.42
2022-11-24T23:06:39.167Z,13.73
2022-11-24T23:09:06.103Z,12.65
2022-11-24T23:11:37.682Z,13.57
2022-11-24T23:14:05.065Z,14.43
2022-11-24T23:16:32.059Z,15.68
2022-11-24T23:18:59.047Z,14.73
2022-11-24T23:21:25.970Z,15.68
2022-11-24T23:23:52.897Z,13.45
2022-11-24T23:26:19.808Z,13.95
2022-11-24T23:28:46.707Z,14.82
2022-11-24T23:31:13.673Z,15.90
2022-11-24T23:33:40.595Z,20.83
2022-11-24T23:36:07.505Z,14.35
2022-11-24T23:38:34.372Z,15.68
2022-11-24T23:41:01.292Z,14.43
2022-11-24T23:43:28.212Z,17.17
2022-11-24T23:45:55.170Z,14.23
2022-11-24T23:48:22.096Z,18.40
2022-11-24T23:50:49.037Z,13.95
2022-11-24T23:53:15.932Z,14.55
2022-11-24T23:55:42.830Z,14.75
2022-11-24T23:58:09.702Z,15.23
